createdAt,value
2018-02-18T00:00:01.895Z,6.03
2018-02-18T00:02:30.151Z,6.57
2018-02-18T00:04:59.447Z,6.80
2018-02-18T00:07:28.809Z,6.40
2018-02-18T00:09:57.456Z,7.40
2018-02-18T00:12:25.750Z,6.93
2018-02-18T00:14:59.735Z,8.60
2018-02-18T00:17:28.107Z,6.80
2018-02-18T00:19:56.427Z,7.73
2018-02-18T00:22:24.914Z,6.93
2018-02-18T00:24:53.276Z,8.05
2018-02-18T00:27:21.659Z,8.37
2018-02-18T00:29:50.059Z,7.10
2018-02-18T00:32:18.555Z,7.50
2018-02-18T00:34:46.871Z,6.73
2018-02-18T00:37:15.162Z,7.53
2018-02-18T00:39:43.480Z,6.50
2018-02-18T00:42:11.800Z,6.47
2018-02-18T00:44:40.864Z,5.80
2018-02-18T00:47:09.182Z,7.80
2018-02-18T00:49:37.804Z,7.20
2018-02-18T00:52:06.270Z,7.33
2018-02-18T00:54:35.406Z,7.53
2018-02-18T00:57:05.010Z,6.63
2018-02-18T00:59:34.560Z,5.90
2018-02-18T01:02:03.394Z,6.63
2018-02-18T01:04:32.815Z,8.40
2018-02-18T01:07:02.226Z,6.40
2018-02-18T01:09:31.054Z,6.30
2018-02-18T01:11:59.486Z,7.77
2018-02-18T01:14:29.319Z,6.20
2018-02-18T01:16:58.960Z,6.20
2018-02-18T01:19:27.319Z,7.07
2018-02-18T01:21:55.740Z,6.47
2018-02-18T01:24:24.271Z,6.70
2018-02-18T01:26:53.069Z,5.80
2018-02-18T01:29:22.403Z,6.75
2018-02-18T01:31:50.902Z,6.22
2018-02-18T01:34:19.213Z,5.40
2018-02-18T01:36:47.507Z,6.37
2018-02-18T01:39:15.834Z,6.47
2018-02-18T01:41:44.126Z,6.47
2018-02-18T01:44:12.447Z,4.67
2018-02-18T01:46:41.574Z,5.45
2018-02-18T01:49:10.943Z,5.35
2018-02-18T01:51:40.270Z,6.00
2018-02-18T01:54:08.889Z,5.03
2018-02-18T01:56:37.518Z,5.43
2018-02-18T01:59:07.027Z,5.20
2018-02-18T02:01:36.151Z,6.40
2018-02-18T02:04:04.935Z,5.10
2018-02-18T02:06:34.163Z,5.63
2018-02-18T02:09:03.102Z,5.30
2018-02-18T02:11:31.648Z,5.00
2018-02-18T02:14:01.553Z,7.10
2018-02-18T02:16:30.467Z,6.35
2018-02-18T02:18:58.989Z,6.13
2018-02-18T02:21:27.947Z,5.93
2018-02-18T02:23:56.411Z,5.67
2018-02-18T02:26:24.735Z,6.20
2018-02-18T02:28:54.225Z,5.25
2018-02-18T02:31:23.992Z,5.77
2018-02-18T02:33:52.999Z,5.80
2018-02-18T02:36:21.812Z,5.37
2018-02-18T02:38:50.974Z,5.60
2018-02-18T02:41:19.473Z,6.20
2018-02-18T02:43:48.564Z,5.80
2018-02-18T02:46:16.848Z,6.00
2018-02-18T02:48:45.166Z,8.27
2018-02-18T02:51:13.448Z,5.93
2018-02-18T02:53:41.775Z,4.93
2018-02-18T02:56:10.163Z,5.23
2018-02-18T02:58:38.717Z,5.70
2018-02-18T03:01:08.003Z,5.87
2018-02-18T03:03:36.439Z,6.13
2018-02-18T03:06:05.139Z,5.18
2018-02-18T03:08:33.734Z,6.17
2018-02-18T03:11:02.938Z,7.10
2018-02-18T03:13:32.677Z,4.90
2018-02-18T03:16:01.499Z,6.17
2018-02-18T03:18:31.531Z,5.23
2018-02-18T03:21:00.781Z,6.55
2018-02-18T03:23:32.084Z,5.90
2018-02-18T03:26:00.833Z,5.53
2018-02-18T03:28:29.555Z,5.45
2018-02-18T03:30:58.123Z,4.87
2018-02-18T03:33:26.463Z,5.40
2018-02-18T03:35:55.032Z,6.20
2018-02-18T03:38:24.405Z,6.50
2018-02-18T03:40:53.006Z,6.05
2018-02-18T03:43:22.590Z,6.80
2018-02-18T03:45:51.031Z,5.77
2018-02-18T03:48:19.463Z,6.12
2018-02-18T03:50:47.844Z,6.90
2018-02-18T03:53:16.156Z,5.60
2018-02-18T03:55:44.447Z,5.60
2018-02-18T03:58:12.768Z,6.80
2018-02-18T04:00:41.084Z,4.70
2018-02-18T04:03:09.404Z,4.47
2018-02-18T04:05:38.511Z,5.00
2018-02-18T04:08:08.327Z,5.00
2018-02-18T04:10:37.518Z,4.93
2018-02-18T04:13:06.571Z,6.57
2018-02-18T04:15:35.675Z,6.70
2018-02-18T04:18:04.740Z,5.43
2018-02-18T04:20:33.291Z,4.80
2018-02-18T04:23:03.592Z,5.53
2018-02-18T04:25:35.121Z,5.05
2018-02-18T04:28:03.851Z,5.47
2018-02-18T04:30:33.963Z,5.73
2018-02-18T04:33:03.451Z,12.00
2018-02-18T04:35:32.036Z,33.90
2018-02-18T04:38:01.013Z,11.27
2018-02-18T04:40:30.511Z,55.75
2018-02-18T04:42:59.797Z,36.87
2018-02-18T04:45:29.275Z,19.63
2018-02-18T04:47:57.591Z,12.73
2018-02-18T04:50:25.883Z,11.63
2018-02-18T04:52:55.083Z,12.13
2018-02-18T04:55:23.759Z,12.13
2018-02-18T04:57:52.551Z,13.03
2018-02-18T05:00:21.797Z,10.60
2018-02-18T05:02:51.063Z,11.03
2018-02-18T05:05:19.483Z,12.27
2018-02-18T05:07:48.152Z,11.67
2018-02-18T05:10:16.444Z,12.70
2018-02-18T05:12:44.742Z,8.77
2018-02-18T05:15:13.076Z,6.45
2018-02-18T05:17:42.478Z,6.50
2018-02-18T05:20:10.771Z,8.27
2018-02-18T05:22:39.235Z,5.95
2018-02-18T05:25:08.188Z,5.55
2018-02-18T05:27:36.598Z,7.33
2018-02-18T05:30:05.779Z,8.47
2018-02-18T05:32:34.642Z,7.07
2018-02-18T05:35:04.443Z,7.70
2018-02-18T05:37:34.102Z,5.22
2018-02-18T05:40:03.171Z,4.60
2018-02-18T05:42:31.986Z,5.47
2018-02-18T05:45:02.527Z,5.97
2018-02-18T05:47:32.008Z,4.80
2018-02-18T05:50:01.106Z,5.90
2018-02-18T05:52:32.161Z,6.00
2018-02-18T05:55:01.635Z,8.60
2018-02-18T05:57:30.763Z,5.72
2018-02-18T05:59:59.207Z,7.80
2018-02-18T06:02:27.626Z,7.50
2018-02-18T06:04:55.950Z,11.02
2018-02-18T06:07:24.575Z,8.38
2018-02-18T06:09:53.320Z,11.65
2018-02-18T06:12:21.687Z,11.55
2018-02-18T06:14:50.045Z,10.43
2018-02-18T06:17:19.135Z,9.18
2018-02-18T06:19:47.432Z,4.62
2018-02-18T06:22:15.835Z,6.47
2018-02-18T06:24:44.166Z,6.75
2018-02-18T06:27:12.461Z,5.80
2018-02-18T06:29:40.791Z,6.37
2018-02-18T06:32:09.895Z,4.90
2018-02-18T06:34:38.371Z,5.87
2018-02-18T06:37:07.242Z,5.83
2018-02-18T06:39:36.186Z,4.97
2018-02-18T06:42:05.612Z,5.80
2018-02-18T06:44:35.314Z,6.57
2018-02-18T06:47:04.015Z,4.87
2018-02-18T06:49:33.814Z,4.25
2018-02-18T06:52:04.038Z,5.00
2018-02-18T06:54:33.180Z,4.23
2018-02-18T06:57:02.700Z,5.45
2018-02-18T06:59:33.215Z,4.97
2018-02-18T07:02:02.639Z,4.95
2018-02-18T07:04:31.897Z,4.45
2018-02-18T07:07:01.687Z,4.62
2018-02-18T07:09:32.096Z,4.93
2018-02-18T07:12:02.327Z,5.03
2018-02-18T07:14:30.921Z,5.37
2018-02-18T07:17:00.078Z,6.30
2018-02-18T07:19:28.481Z,5.87
2018-02-18T07:21:56.840Z,5.20
2018-02-18T07:24:25.588Z,4.55
2018-02-18T07:26:55.011Z,5.70
2018-02-18T07:29:24.758Z,6.93
2018-02-18T07:31:54.088Z,6.20
2018-02-18T07:34:22.790Z,5.90
2018-02-18T07:36:51.190Z,4.20
2018-02-18T07:39:19.615Z,3.62
2018-02-18T07:41:48.018Z,3.87
2018-02-18T07:44:16.343Z,5.50
2018-02-18T07:46:45.398Z,4.28
2018-02-18T07:49:13.682Z,3.67
2018-02-18T07:51:42.766Z,4.72
2018-02-18T07:54:11.064Z,4.60
2018-02-18T07:56:39.854Z,3.87
2018-02-18T07:59:08.893Z,4.10
2018-02-18T08:01:37.516Z,3.85
2018-02-18T08:04:06.823Z,4.27
2018-02-18T08:06:35.333Z,6.00
2018-02-18T08:09:05.934Z,5.20
2018-02-18T08:11:35.199Z,7.90
2018-02-18T08:14:04.540Z,6.47
2018-02-18T08:16:33.960Z,7.80
2018-02-18T08:19:03.055Z,4.80
2018-02-18T08:21:31.730Z,3.78
2018-02-18T08:24:02.370Z,4.05
2018-02-18T08:26:32.592Z,3.80
2018-02-18T08:29:02.226Z,5.55
2018-02-18T08:31:30.905Z,4.72
2018-02-18T08:34:01.539Z,4.43
2018-02-18T08:36:33.568Z,3.10
2018-02-18T08:39:03.379Z,2.90
2018-02-18T08:41:32.152Z,3.97
2018-02-18T08:44:00.852Z,3.27
2018-02-18T08:46:30.223Z,4.75
2018-02-18T08:49:01.279Z,4.00
2018-02-18T08:51:29.930Z,4.73
2018-02-18T08:53:59.918Z,2.90
2018-02-18T08:56:28.605Z,3.30
2018-02-18T08:58:57.314Z,4.10
2018-02-18T09:01:25.639Z,3.97
2018-02-18T09:03:54.076Z,2.50
2018-02-18T09:06:23.203Z,3.20
2018-02-18T09:08:51.490Z,4.60
2018-02-18T09:11:21.100Z,2.60
2018-02-18T09:13:50.963Z,3.10
2018-02-18T09:16:19.521Z,3.90
2018-02-18T09:18:50.079Z,2.77
2018-02-18T09:21:18.575Z,3.70
2018-02-18T09:23:46.914Z,2.70
2018-02-18T09:26:15.198Z,2.83
2018-02-18T09:28:43.503Z,3.53
2018-02-18T09:31:11.907Z,4.20
2018-02-18T09:33:40.199Z,3.07
2018-02-18T09:36:08.696Z,3.50
2018-02-18T09:38:37.014Z,3.40
2018-02-18T09:41:05.695Z,4.00
2018-02-18T09:43:34.111Z,4.50
2018-02-18T09:46:02.831Z,4.03
2018-02-18T09:48:31.419Z,3.27
2018-02-18T09:50:59.830Z,4.37
2018-02-18T09:53:28.955Z,5.73
2018-02-18T09:55:57.367Z,3.70
2018-02-18T09:58:25.675Z,3.27
2018-02-18T10:00:54.135Z,4.73
2018-02-18T10:03:22.736Z,3.07
2018-02-18T10:05:51.207Z,2.60
2018-02-18T10:08:19.606Z,2.93
2018-02-18T10:10:48.919Z,2.20
2018-02-18T10:13:17.239Z,3.80
2018-02-18T10:15:45.574Z,5.17
2018-02-18T10:18:14.654Z,5.00
2018-02-18T10:20:42.974Z,4.00
2018-02-18T10:23:11.254Z,4.07
2018-02-18T10:25:39.579Z,4.40
2018-02-18T10:28:08.071Z,2.60
2018-02-18T10:30:36.571Z,3.30
2018-02-18T10:33:04.987Z,3.03
2018-02-18T10:35:33.747Z,2.50
2018-02-18T10:38:02.406Z,2.10
2018-02-18T10:40:31.014Z,2.60
2018-02-18T10:42:59.402Z,2.07
2018-02-18T10:45:29.211Z,2.20
2018-02-18T10:47:57.899Z,2.40
2018-02-18T10:50:26.367Z,1.80
2018-02-18T10:52:54.646Z,1.90
2018-02-18T10:55:22.952Z,2.20
2018-02-18T10:57:51.461Z,2.77
2018-02-18T11:00:19.800Z,1.87
2018-02-18T11:02:48.859Z,1.73
2018-02-18T11:05:17.195Z,1.40
2018-02-18T11:07:45.511Z,2.13
2018-02-18T11:10:13.823Z,2.60
2018-02-18T11:12:42.142Z,1.33
2018-02-18T11:15:11.234Z,1.37
2018-02-18T11:17:39.595Z,1.90
2018-02-18T11:20:07.860Z,2.03
2018-02-18T11:22:37.230Z,1.27
2018-02-18T11:25:05.606Z,1.80
2018-02-18T11:27:34.880Z,1.63
2018-02-18T11:30:04.206Z,1.60
2018-02-18T11:32:32.814Z,1.67
2018-02-18T11:35:01.220Z,1.63
2018-02-18T11:37:30.862Z,1.67
2018-02-18T11:40:00.020Z,1.17
2018-02-18T11:42:28.363Z,1.20
2018-02-18T11:44:57.455Z,1.57
2018-02-18T11:47:25.735Z,1.13
2018-02-18T11:49:54.819Z,1.30
2018-02-18T11:52:24.343Z,1.30
2018-02-18T11:54:52.666Z,1.77
2018-02-18T11:57:21.039Z,1.10
2018-02-18T11:59:49.811Z,1.30
2018-02-18T12:02:18.940Z,1.67
2018-02-18T12:04:47.231Z,1.50
2018-02-18T12:07:16.312Z,3.10
2018-02-18T12:09:44.622Z,1.83
2018-02-18T12:12:12.899Z,2.20
2018-02-18T12:14:41.211Z,3.10
2018-02-18T12:17:09.528Z,1.30
2018-02-18T12:19:37.808Z,1.60
2018-02-18T12:22:06.195Z,3.10
2018-02-18T12:24:34.754Z,2.60
2018-02-18T12:27:03.330Z,1.93
2018-02-18T12:29:31.863Z,1.60
2018-02-18T12:32:00.416Z,2.60
2018-02-18T12:34:29.067Z,2.27
2018-02-18T12:36:57.419Z,2.57
2018-02-18T12:39:25.807Z,3.13
2018-02-18T12:41:54.896Z,2.70
2018-02-18T12:44:23.186Z,3.00
2018-02-18T12:46:51.592Z,3.00
2018-02-18T12:49:20.006Z,3.57
2018-02-18T12:51:49.155Z,2.37
2018-02-18T12:54:17.497Z,4.15
2018-02-18T12:56:45.916Z,3.00
2018-02-18T12:59:14.212Z,3.10
2018-02-18T13:01:42.523Z,3.20
2018-02-18T13:04:11.139Z,3.40
2018-02-18T13:06:39.531Z,2.77
2018-02-18T13:09:07.864Z,2.87
2018-02-18T13:11:36.267Z,2.97
2018-02-18T13:14:04.746Z,3.13
2018-02-18T13:16:34.063Z,2.70
2018-02-18T13:19:02.439Z,3.43
2018-02-18T13:21:30.875Z,3.17
2018-02-18T13:23:59.300Z,3.73
2018-02-18T13:26:27.695Z,3.93
2018-02-18T13:28:56.007Z,4.73
2018-02-18T13:31:24.319Z,4.93
2018-02-18T13:33:52.594Z,4.00
2018-02-18T13:36:21.223Z,4.07
2018-02-18T13:38:49.618Z,3.63
2018-02-18T13:41:18.144Z,3.77
2018-02-18T13:43:46.467Z,3.50
2018-02-18T13:46:15.520Z,4.40
2018-02-18T13:48:43.831Z,4.07
2018-02-18T13:51:12.115Z,3.50
2018-02-18T13:53:40.436Z,5.00
2018-02-18T13:56:08.713Z,3.83
2018-02-18T13:58:37.146Z,3.20
2018-02-18T14:01:07.397Z,4.00
2018-02-18T14:03:35.799Z,4.00
2018-02-18T14:06:04.291Z,3.20
2018-02-18T14:08:32.786Z,4.67
2018-02-18T14:11:01.202Z,6.10
2018-02-18T14:13:29.559Z,4.53
2018-02-18T14:15:58.678Z,3.60
2018-02-18T14:18:27.027Z,4.07
2018-02-18T14:20:55.349Z,4.27
2018-02-18T14:23:23.635Z,4.60
2018-02-18T14:25:51.916Z,4.80
2018-02-18T14:28:20.665Z,3.92
2018-02-18T14:30:49.062Z,3.93
2018-02-18T14:33:17.340Z,3.50
2018-02-18T14:35:45.679Z,2.97
2018-02-18T14:38:13.999Z,4.43
2018-02-18T14:40:42.332Z,4.43
2018-02-18T14:43:23.272Z,4.00
2018-02-18T14:46:03.439Z,4.40
2018-02-18T14:48:43.448Z,3.80
2018-02-18T14:51:23.670Z,3.57
2018-02-18T14:54:04.710Z,4.13
2018-02-18T14:56:45.199Z,5.40
2018-02-18T14:59:13.510Z,4.43
2018-02-18T15:01:41.926Z,3.33
2018-02-18T15:04:10.246Z,3.10
2018-02-18T15:06:39.508Z,3.33
2018-02-18T15:09:07.830Z,5.20
2018-02-18T15:11:36.113Z,5.03
2018-02-18T15:14:05.235Z,6.33
2018-02-18T15:16:33.686Z,5.50
2018-02-18T15:19:02.080Z,7.15
2018-02-18T15:21:30.735Z,6.57
2018-02-18T15:23:59.335Z,5.87
2018-02-18T15:26:27.780Z,6.17
2018-02-18T15:28:56.424Z,6.33
2018-02-18T15:31:24.715Z,5.40
2018-02-18T15:33:52.998Z,6.30
2018-02-18T15:36:21.319Z,7.07
2018-02-18T15:38:49.771Z,8.70
2018-02-18T15:41:18.119Z,13.30
2018-02-18T15:43:46.415Z,11.30
2018-02-18T15:46:15.003Z,7.43
2018-02-18T15:48:43.283Z,5.80
2018-02-18T15:51:12.331Z,4.27
2018-02-18T15:53:40.655Z,6.03
2018-02-18T15:56:08.934Z,4.13
2018-02-18T15:58:37.258Z,5.77
2018-02-18T16:01:05.842Z,4.87
2018-02-18T16:03:34.410Z,3.73
2018-02-18T16:06:04.123Z,4.18
2018-02-18T16:08:33.643Z,3.43
2018-02-18T16:11:02.804Z,3.97
2018-02-18T16:13:31.419Z,5.10
2018-02-18T16:16:01.096Z,6.00
2018-02-18T16:18:29.475Z,4.67
2018-02-18T16:20:57.818Z,3.80
2018-02-18T16:23:26.314Z,4.53
2018-02-18T16:25:54.930Z,2.80
2018-02-18T16:28:23.218Z,2.20
2018-02-18T16:30:51.536Z,2.00
2018-02-18T16:33:19.931Z,2.20
2018-02-18T16:35:48.520Z,2.20
2018-02-18T16:38:16.874Z,2.37
2018-02-18T16:40:45.367Z,1.60
2018-02-18T16:43:13.704Z,2.03
2018-02-18T16:45:41.943Z,2.00
2018-02-18T16:48:10.582Z,1.60
2018-02-18T16:50:38.854Z,1.60
2018-02-18T16:53:07.134Z,1.63
2018-02-18T16:55:36.358Z,2.50
2018-02-18T16:58:04.754Z,1.70
2018-02-18T17:00:33.108Z,1.80
2018-02-18T17:03:01.628Z,2.47
2018-02-18T17:05:31.125Z,1.93
2018-02-18T17:07:59.666Z,2.03
2018-02-18T17:10:28.708Z,1.73
2018-02-18T17:12:57.038Z,2.00
2018-02-18T17:15:26.106Z,2.60
2018-02-18T17:17:54.382Z,2.50
2018-02-18T17:20:22.862Z,2.70
2018-02-18T17:22:51.186Z,3.50
2018-02-18T17:25:19.610Z,4.90
2018-02-18T17:27:48.824Z,2.73
2018-02-18T17:30:17.114Z,2.53
2018-02-18T17:32:45.431Z,3.37
2018-02-18T17:35:13.748Z,4.07
2018-02-18T17:37:42.036Z,4.47
2018-02-18T17:40:10.450Z,5.60
2018-02-18T17:42:38.760Z,9.30
2018-02-18T17:45:07.463Z,9.77
2018-02-18T17:47:35.964Z,8.07
2018-02-18T17:50:04.526Z,4.70
2018-02-18T17:52:33.147Z,6.70
2018-02-18T17:55:01.583Z,9.67
2018-02-18T17:57:30.062Z,6.00
2018-02-18T17:59:58.593Z,3.73
2018-02-18T18:02:26.947Z,3.40
2018-02-18T18:04:56.026Z,4.77
2018-02-18T18:07:24.343Z,3.67
2018-02-18T18:09:52.732Z,4.40
2018-02-18T18:12:21.023Z,2.73
2018-02-18T18:14:49.590Z,2.80
2018-02-18T18:17:17.914Z,3.97
2018-02-18T18:19:46.247Z,4.83
2018-02-18T18:22:14.559Z,4.83
2018-02-18T18:24:42.871Z,5.90
2018-02-18T18:27:11.191Z,6.67
2018-02-18T18:29:40.260Z,7.10
2018-02-18T18:32:08.541Z,6.10
2018-02-18T18:34:36.982Z,6.53
2018-02-18T18:37:05.678Z,7.17
2018-02-18T18:39:34.288Z,9.50
2018-02-18T18:42:02.922Z,8.40
2018-02-18T18:44:32.131Z,5.40
2018-02-18T18:47:00.523Z,5.50
2018-02-18T18:49:28.896Z,5.93
2018-02-18T18:51:57.235Z,6.60
2018-02-18T18:54:25.515Z,5.30
2018-02-18T18:56:53.831Z,6.97
2018-02-18T18:59:22.110Z,7.60
2018-02-18T19:01:50.845Z,5.50
2018-02-18T19:04:19.219Z,6.70
2018-02-18T19:06:47.564Z,7.57
2018-02-18T19:09:16.689Z,6.00
2018-02-18T19:11:44.968Z,6.47
2018-02-18T19:14:13.282Z,6.87
2018-02-18T19:16:41.710Z,6.93
2018-02-18T19:19:09.998Z,6.93
2018-02-18T19:21:38.292Z,6.20
2018-02-18T19:24:06.690Z,8.40
2018-02-18T19:26:34.992Z,7.87
2018-02-18T19:29:03.693Z,7.30
2018-02-18T19:31:32.210Z,7.70
2018-02-18T19:34:00.823Z,7.03
2018-02-18T19:36:29.222Z,7.03
2018-02-18T19:38:57.829Z,8.00
2018-02-18T19:41:26.127Z,6.93
2018-02-18T19:43:54.434Z,6.97
2018-02-18T19:46:22.727Z,7.20
2018-02-18T19:48:51.052Z,5.62
2018-02-18T19:51:19.894Z,7.47
2018-02-18T19:53:48.270Z,5.83
2018-02-18T19:56:16.867Z,6.63
2018-02-18T19:58:45.150Z,6.50
2018-02-18T20:01:13.478Z,7.00
2018-02-18T20:03:41.807Z,6.37
2018-02-18T20:06:10.884Z,6.40
2018-02-18T20:08:39.163Z,6.33
2018-02-18T20:11:07.491Z,7.23
2018-02-18T20:13:36.115Z,7.53
2018-02-18T20:16:04.474Z,6.10
2018-02-18T20:18:32.975Z,6.50
2018-02-18T20:21:02.304Z,6.30
2018-02-18T20:23:30.678Z,6.17
2018-02-18T20:25:59.047Z,6.30
2018-02-18T20:28:29.505Z,7.30
2018-02-18T20:30:57.801Z,7.83
2018-02-18T20:33:26.135Z,7.30
2018-02-18T20:35:54.411Z,7.00
2018-02-18T20:38:22.699Z,7.83
2018-02-18T20:40:51.027Z,7.80
2018-02-18T20:43:19.423Z,7.63
2018-02-18T20:45:48.102Z,7.63
2018-02-18T20:48:16.439Z,7.70
2018-02-18T20:50:44.726Z,7.20
2018-02-18T20:53:13.042Z,9.10
2018-02-18T20:55:41.322Z,7.37
2018-02-18T20:58:09.846Z,8.20
2018-02-18T21:00:38.155Z,6.60
2018-02-18T21:03:06.444Z,8.17
2018-02-18T21:05:34.805Z,6.93
2018-02-18T21:08:04.018Z,8.43
2018-02-18T21:10:32.620Z,8.10
2018-02-18T21:13:01.855Z,6.13
2018-02-18T21:15:30.520Z,7.22
2018-02-18T21:17:58.946Z,6.33
2018-02-18T21:20:28.478Z,7.50
2018-02-18T21:22:56.859Z,8.33
2018-02-18T21:25:25.144Z,6.40
2018-02-18T21:27:53.466Z,6.17
2018-02-18T21:30:21.907Z,7.97
2018-02-18T21:32:50.371Z,7.33
2018-02-18T21:35:18.964Z,7.00
2018-02-18T21:37:47.259Z,7.37
2018-02-18T21:40:15.907Z,7.05
2018-02-18T21:42:44.295Z,7.37
2018-02-18T21:45:12.579Z,7.33
2018-02-18T21:47:40.906Z,7.93
2018-02-18T21:50:09.207Z,6.97
2018-02-18T21:52:37.495Z,6.70
2018-02-18T21:55:05.815Z,8.60
2018-02-18T21:57:34.158Z,6.57
2018-02-18T22:00:02.802Z,6.77
2018-02-18T22:02:31.380Z,6.53
2018-02-18T22:04:59.851Z,7.10
2018-02-18T22:07:28.272Z,6.10
2018-02-18T22:09:57.315Z,6.10
2018-02-18T22:12:25.598Z,5.70
2018-02-18T22:14:53.925Z,7.27
2018-02-18T22:17:22.240Z,6.17
2018-02-18T22:19:50.611Z,6.87
2018-02-18T22:22:18.971Z,6.53
2018-02-18T22:24:47.280Z,6.03
2018-02-18T22:27:15.688Z,6.77
2018-02-18T22:29:43.999Z,6.00
2018-02-18T22:32:12.279Z,7.00
2018-02-18T22:34:40.595Z,6.87
2018-02-18T22:37:08.912Z,5.57
2018-02-18T22:39:37.958Z,6.00
2018-02-18T22:42:06.350Z,7.40
2018-02-18T22:44:34.704Z,5.60
2018-02-18T22:47:03.330Z,7.73
2018-02-18T22:49:31.693Z,6.90
2018-02-18T22:52:00.171Z,7.13
2018-02-18T22:54:28.613Z,7.37
2018-02-18T22:56:56.960Z,6.30
2018-02-18T22:59:26.350Z,6.60
2018-02-18T23:01:54.635Z,6.77
2018-02-18T23:04:22.914Z,6.37
2018-02-18T23:06:51.254Z,8.00
2018-02-18T23:09:19.652Z,6.50
2018-02-18T23:11:47.986Z,6.30
2018-02-18T23:14:17.807Z,7.20
2018-02-18T23:16:46.091Z,6.30
2018-02-18T23:19:14.511Z,6.60
2018-02-18T23:21:42.806Z,6.70
2018-02-18T23:24:11.208Z,6.33
2018-02-18T23:26:40.614Z,7.13
2018-02-18T23:29:11.116Z,6.30
2018-02-18T23:31:40.327Z,6.27
2018-02-18T23:34:12.351Z,5.83
2018-02-18T23:36:40.962Z,5.53
2018-02-18T23:39:10.039Z,6.40
2018-02-18T23:41:38.678Z,6.77
2018-02-18T23:44:07.460Z,5.83
2018-02-18T23:46:35.954Z,6.70
2018-02-18T23:49:05.099Z,5.43
2018-02-18T23:51:34.458Z,6.00
2018-02-18T23:54:03.368Z,6.73
2018-02-18T23:56:31.827Z,6.00
2018-02-18T23:59:00.309Z,5.73
